sensor_id;sensor_type;location;lat;lon;timestamp;pressure;altitude;pressure_sealevel;temperature;humidity
20023;BME280;10172;42.054;24.546;2022-11-12T00:01:08;99524.50;;;11.71;100.00
20023;BME280;10172;42.054;24.546;2022-11-12T00:03:33;99529.50;;;10.91;100.00
20023;BME280;10172;42.054;24.546;2022-11-12T00:05:59;99522.72;;;11.37;100.00
20023;BME280;10172;42.054;24.546;2022-11-12T00:08:24;99515.69;;;11.19;100.00
20023;BME280;10172;42.054;24.546;2022-11-12T00:10:50;99528.59;;;10.73;100.00
20023;BME280;10172;42.054;24.546;2022-11-12T00:13:15;99517.66;;;10.79;100.00
20023;BME280;10172;42.054;24.546;2022-11-12T00:15:41;99522.00;;;10.99;100.00
20023;BME280;10172;42.054;24.546;2022-11-12T00:18:06;99527.84;;;11.06;100.00
20023;BME280;10172;42.054;24.546;2022-11-12T00:20:33;99525.44;;;10.65;100.00
20023;BME280;10172;42.054;24.546;2022-11-12T00:22:58;99524.03;;;11.11;100.00
20023;BME280;10172;42.054;24.546;2022-11-12T00:25:24;99526.16;;;11.56;100.00
20023;BME280;10172;42.054;24.546;2022-11-12T00:27:49;99521.97;;;12.18;100.00
20023;BME280;10172;42.054;24.546;2022-11-12T00:30:15;99525.63;;;10.79;100.00
20023;BME280;10172;42.054;24.546;2022-11-12T00:32:40;99517.81;;;10.02;100.00
20023;BME280;10172;42.054;24.546;2022-11-12T00:35:06;99523.78;;;10.07;100.00
20023;BME280;10172;42.054;24.546;2022-11-12T00:37:32;99523.13;;;9.83;100.00
20023;BME280;10172;42.054;24.546;2022-11-12T00:39:57;99522.41;;;9.98;100.00
20023;BME280;10172;42.054;24.546;2022-11-12T00:42:23;99533.56;;;9.47;100.00
20023;BME280;10172;42.054;24.546;2022-11-12T00:44:48;99526.13;;;9.55;100.00
20023;BME280;10172;42.054;24.546;2022-11-12T00:47:15;99529.19;;;9.46;100.00
20023;BME280;10172;42.054;24.546;2022-11-12T00:49:40;99528.94;;;9.32;100.00
20023;BME280;10172;42.054;24.546;2022-11-12T00:52:06;99521.56;;;9.19;100.00
20023;BME280;10172;42.054;24.546;2022-11-12T00:54:31;99522.81;;;9.10;100.00
20023;BME280;10172;42.054;24.546;2022-11-12T00:56:56;99517.84;;;9.23;100.00
20023;BME280;10172;42.054;24.546;2022-11-12T00:59:22;99519.63;;;9.42;100.00
20023;BME280;10172;42.054;24.546;2022-11-12T01:01:47;99510.00;;;9.79;100.00
20023;BME280;10172;42.054;24.546;2022-11-12T01:04:14;99515.31;;;9.79;100.00
20023;BME280;10172;42.054;24.546;2022-11-12T01:06:40;99517.25;;;9.36;100.00
20023;BME280;10172;42.054;24.546;2022-11-12T01:09:07;99508.16;;;9.42;100.00
20023;BME280;10172;42.054;24.546;2022-11-12T01:11:33;99504.75;;;9.38;100.00
20023;BME280;10172;42.054;24.546;2022-11-12T01:14:05;99511.41;;;9.28;100.00
20023;BME280;10172;42.054;24.546;2022-11-12T01:16:34;99513.41;;;9.43;100.00
20023;BME280;10172;42.054;24.546;2022-11-12T01:19:01;99509.97;;;9.60;100.00
20023;BME280;10172;42.054;24.546;2022-11-12T01:21:28;99506.31;;;9.83;100.00
20023;BME280;10172;42.054;24.546;2022-11-12T01:23:56;99505.28;;;9.67;100.00
20023;BME280;10172;42.054;24.546;2022-11-12T01:26:23;99502.00;;;9.99;100.00
20023;BME280;10172;42.054;24.546;2022-11-12T01:28:49;99506.00;;;10.82;100.00
20023;BME280;10172;42.054;24.546;2022-11-12T01:31:26;99505.72;;;9.95;100.00
20023;BME280;10172;42.054;24.546;2022-11-12T01:33:55;99504.47;;;9.65;100.00
20023;BME280;10172;42.054;24.546;2022-11-12T01:36:20;99504.09;;;9.53;100.00
20023;BME280;10172;42.054;24.546;2022-11-12T01:38:46;99502.63;;;9.46;100.00
20023;BME280;10172;42.054;24.546;2022-11-12T01:41:19;99492.69;;;9.31;100.00
20023;BME280;10172;42.054;24.546;2022-11-12T01:43:44;99503.16;;;9.34;100.00
20023;BME280;10172;42.054;24.546;2022-11-12T01:46:18;99482.41;;;9.62;100.00
20023;BME280;10172;42.054;24.546;2022-11-12T01:49:00;99497.50;;;9.62;100.00
20023;BME280;10172;42.054;24.546;2022-11-12T01:51:33;99500.72;;;9.30;100.00
20023;BME280;10172;42.054;24.546;2022-11-12T01:54:02;99487.63;;;9.25;100.00
20023;BME280;10172;42.054;24.546;2022-11-12T01:56:31;99477.00;;;9.25;100.00
20023;BME280;10172;42.054;24.546;2022-11-12T01:59:07;99494.47;;;9.11;100.00
20023;BME280;10172;42.054;24.546;2022-11-12T02:01:36;99484.44;;;8.97;100.00
20023;BME280;10172;42.054;24.546;2022-11-12T02:04:03;99492.28;;;9.00;100.00
20023;BME280;10172;42.054;24.546;2022-11-12T02:06:29;99486.22;;;8.96;100.00
20023;BME280;10172;42.054;24.546;2022-11-12T02:08:55;99485.16;;;9.00;100.00
20023;BME280;10172;42.054;24.546;2022-11-12T02:11:21;99488.25;;;8.70;100.00
20023;BME280;10172;42.054;24.546;2022-11-12T02:13:48;99492.41;;;9.17;100.00
20023;BME280;10172;42.054;24.546;2022-11-12T02:16:33;99495.03;;;9.57;100.00
20023;BME280;10172;42.054;24.546;2022-11-12T02:19:01;99484.41;;;9.96;100.00
20023;BME280;10172;42.054;24.546;2022-11-12T02:21:27;99489.09;;;10.10;100.00
20023;BME280;10172;42.054;24.546;2022-11-12T02:24:05;99501.38;;;10.86;100.00
20023;BME280;10172;42.054;24.546;2022-11-12T02:26:33;99498.94;;;10.08;100.00
20023;BME280;10172;42.054;24.546;2022-11-12T02:29:00;99486.09;;;9.79;100.00
20023;BME280;10172;42.054;24.546;2022-11-12T02:31:25;99496.97;;;9.93;100.00
20023;BME280;10172;42.054;24.546;2022-11-12T02:33:51;99497.25;;;9.48;100.00
20023;BME280;10172;42.054;24.546;2022-11-12T02:36:17;99501.16;;;8.99;100.00
20023;BME280;10172;42.054;24.546;2022-11-12T02:38:42;99499.72;;;8.70;100.00
20023;BME280;10172;42.054;24.546;2022-11-12T02:41:08;99492.94;;;8.63;100.00
20023;BME280;10172;42.054;24.546;2022-11-12T02:43:33;99501.22;;;9.58;100.00
20023;BME280;10172;42.054;24.546;2022-11-12T02:45:59;99501.31;;;10.51;100.00
20023;BME280;10172;42.054;24.546;2022-11-12T02:48:24;99503.59;;;11.12;100.00
20023;BME280;10172;42.054;24.546;2022-11-12T02:50:50;99495.81;;;11.41;100.00
20023;BME280;10172;42.054;24.546;2022-11-12T02:53:15;99506.53;;;11.91;100.00
20023;BME280;10172;42.054;24.546;2022-11-12T02:55:41;99505.44;;;11.61;100.00
20023;BME280;10172;42.054;24.546;2022-11-12T02:58:07;99500.59;;;11.86;100.00
20023;BME280;10172;42.054;24.546;2022-11-12T03:00:32;99502.41;;;12.02;100.00
20023;BME280;10172;42.054;24.546;2022-11-12T03:02:58;99511.59;;;11.29;100.00
20023;BME280;10172;42.054;24.546;2022-11-12T03:05:28;99511.75;;;11.93;100.00
20023;BME280;10172;42.054;24.546;2022-11-12T03:08:01;99513.78;;;11.21;100.00
20023;BME280;10172;42.054;24.546;2022-11-12T03:10:27;99508.41;;;9.16;100.00
20023;BME280;10172;42.054;24.546;2022-11-12T03:12:55;99506.38;;;8.59;100.00
20023;BME280;10172;42.054;24.546;2022-11-12T03:15:21;99508.69;;;8.46;100.00
20023;BME280;10172;42.054;24.546;2022-11-12T03:17:47;99502.63;;;8.43;100.00
20023;BME280;10172;42.054;24.546;2022-11-12T03:20:12;99505.41;;;8.39;100.00
20023;BME280;10172;42.054;24.546;2022-11-12T03:22:38;99508.72;;;8.45;100.00
20023;BME280;10172;42.054;24.546;2022-11-12T03:25:05;99514.16;;;8.63;100.00
20023;BME280;10172;42.054;24.546;2022-11-12T03:27:31;99511.19;;;8.71;100.00
20023;BME280;10172;42.054;24.546;2022-11-12T03:29:56;99509.72;;;8.64;100.00
20023;BME280;10172;42.054;24.546;2022-11-12T03:32:22;99510.16;;;8.53;100.00
20023;BME280;10172;42.054;24.546;2022-11-12T03:34:48;99511.44;;;8.65;100.00
20023;BME280;10172;42.054;24.546;2022-11-12T03:37:13;99504.41;;;8.64;100.00
20023;BME280;10172;42.054;24.546;2022-11-12T03:39:39;99509.41;;;8.71;100.00
20023;BME280;10172;42.054;24.546;2022-11-12T03:42:04;99514.59;;;8.53;100.00
20023;BME280;10172;42.054;24.546;2022-11-12T03:44:30;99501.75;;;8.42;100.00
20023;BME280;10172;42.054;24.546;2022-11-12T03:46:55;99515.56;;;8.72;100.00
20023;BME280;10172;42.054;24.546;2022-11-12T03:49:21;99506.56;;;9.38;100.00
20023;BME280;10172;42.054;24.546;2022-11-12T03:51:46;99506.75;;;9.33;100.00
20023;BME280;10172;42.054;24.546;2022-11-12T03:54:12;99501.78;;;9.46;100.00
20023;BME280;10172;42.054;24.546;2022-11-12T03:56:38;99516.81;;;9.66;100.00
20023;BME280;10172;42.054;24.546;2022-11-12T03:59:03;99503.56;;;9.84;100.00
20023;BME280;10172;42.054;24.546;2022-11-12T04:01:29;99504.56;;;9.82;100.00
20023;BME280;10172;42.054;24.546;2022-11-12T04:03:54;99502.88;;;10.55;100.00
20023;BME280;10172;42.054;24.546;2022-11-12T04:06:20;99508.19;;;9.81;100.00
20023;BME280;10172;42.054;24.546;2022-11-12T04:09:04;99503.41;;;10.26;100.00
20023;BME280;10172;42.054;24.546;2022-11-12T04:11:29;99510.66;;;10.41;100.00
20023;BME280;10172;42.054;24.546;2022-11-12T04:13:55;99510.72;;;10.58;100.00
20023;BME280;10172;42.054;24.546;2022-11-12T04:16:21;99505.53;;;10.55;100.00
20023;BME280;10172;42.054;24.546;2022-11-12T04:19:10;99494.59;;;11.31;100.00
20023;BME280;10172;42.054;24.546;2022-11-12T04:22:02;99498.47;;;10.90;100.00
20023;BME280;10172;42.054;24.546;2022-11-12T04:24:31;99499.81;;;9.70;100.00
20023;BME280;10172;42.054;24.546;2022-11-12T04:27:16;99503.50;;;10.43;100.00
20023;BME280;10172;42.054;24.546;2022-11-12T04:29:43;99490.31;;;10.40;100.00
20023;BME280;10172;42.054;24.546;2022-11-12T04:32:27;99484.25;;;10.91;100.00
20023;BME280;10172;42.054;24.546;2022-11-12T04:34:53;99490.53;;;10.17;100.00
20023;BME280;10172;42.054;24.546;2022-11-12T04:37:20;99495.13;;;10.87;100.00
20023;BME280;10172;42.054;24.546;2022-11-12T04:39:45;99492.66;;;10.09;100.00
20023;BME280;10172;42.054;24.546;2022-11-12T04:42:11;99491.28;;;10.92;100.00
20023;BME280;10172;42.054;24.546;2022-11-12T04:44:55;99499.13;;;11.12;100.00
20023;BME280;10172;42.054;24.546;2022-11-12T04:47:38;99499.25;;;11.78;100.00
20023;BME280;10172;42.054;24.546;2022-11-12T04:50:07;99498.66;;;12.06;100.00
20023;BME280;10172;42.054;24.546;2022-11-12T04:52:33;99498.56;;;12.23;100.00
20023;BME280;10172;42.054;24.546;2022-11-12T04:54:59;99498.38;;;11.60;100.00
20023;BME280;10172;42.054;24.546;2022-11-12T04:57:25;99510.66;;;11.13;100.00
20023;BME280;10172;42.054;24.546;2022-11-12T04:59:50;99505.41;;;11.46;100.00
20023;BME280;10172;42.054;24.546;2022-11-12T05:02:16;99509.19;;;11.24;100.00
20023;BME280;10172;42.054;24.546;2022-11-12T05:04:42;99504.50;;;9.44;100.00
20023;BME280;10172;42.054;24.546;2022-11-12T05:07:09;99512.09;;;10.11;100.00
20023;BME280;10172;42.054;24.546;2022-11-12T05:09:34;99519.38;;;9.48;100.00
20023;BME280;10172;42.054;24.546;2022-11-12T05:12:00;99520.31;;;8.64;100.00
20023;BME280;10172;42.054;24.546;2022-11-12T05:14:25;99517.47;;;9.71;100.00
20023;BME280;10172;42.054;24.546;2022-11-12T05:16:51;99517.59;;;10.62;100.00
20023;BME280;10172;42.054;24.546;2022-11-12T05:19:17;99525.44;;;10.65;100.00
20023;BME280;10172;42.054;24.546;2022-11-12T05:21:42;99521.00;;;10.10;100.00
20023;BME280;10172;42.054;24.546;2022-11-12T05:24:26;99531.53;;;9.54;100.00
20023;BME280;10172;42.054;24.546;2022-11-12T05:26:52;99524.38;;;9.75;100.00
20023;BME280;10172;42.054;24.546;2022-11-12T05:29:18;99532.06;;;9.62;100.00
20023;BME280;10172;42.054;24.546;2022-11-12T05:31:44;99537.38;;;9.62;100.00
20023;BME280;10172;42.054;24.546;2022-11-12T05:34:09;99526.13;;;9.76;100.00
20023;BME280;10172;42.054;24.546;2022-11-12T05:36:35;99534.63;;;9.84;100.00
20023;BME280;10172;42.054;24.546;2022-11-12T05:39:01;99544.53;;;9.40;100.00
20023;BME280;10172;42.054;24.546;2022-11-12T05:41:26;99540.28;;;9.36;100.00
20023;BME280;10172;42.054;24.546;2022-11-12T05:43:52;99540.06;;;9.81;100.00
20023;BME280;10172;42.054;24.546;2022-11-12T05:46:17;99543.91;;;9.33;100.00
20023;BME280;10172;42.054;24.546;2022-11-12T05:48:43;99539.63;;;9.90;100.00
20023;BME280;10172;42.054;24.546;2022-11-12T05:51:08;99549.06;;;9.97;100.00
20023;BME280;10172;42.054;24.546;2022-11-12T05:53:34;99548.53;;;10.46;100.00
20023;BME280;10172;42.054;24.546;2022-11-12T05:56:00;99555.88;;;10.96;100.00
20023;BME280;10172;42.054;24.546;2022-11-12T05:58:26;99567.75;;;10.53;100.00
20023;BME280;10172;42.054;24.546;2022-11-12T06:00:52;99576.47;;;11.11;100.00
20023;BME280;10172;42.054;24.546;2022-11-12T06:03:17;99563.28;;;10.72;100.00
20023;BME280;10172;42.054;24.546;2022-11-12T06:05:42;99574.09;;;11.05;100.00
20023;BME280;10172;42.054;24.546;2022-11-12T06:08:08;99583.44;;;11.48;100.00
20023;BME280;10172;42.054;24.546;2022-11-12T06:10:34;99589.63;;;11.65;100.00
20023;BME280;10172;42.054;24.546;2022-11-12T06:12:59;99597.72;;;11.98;100.00
20023;BME280;10172;42.054;24.546;2022-11-12T06:15:25;99593.84;;;12.21;100.00
20023;BME280;10172;42.054;24.546;2022-11-12T06:17:53;99601.88;;;12.36;100.00
20023;BME280;10172;42.054;24.546;2022-11-12T06:20:20;99597.25;;;12.55;100.00
20023;BME280;10172;42.054;24.546;2022-11-12T06:22:45;99596.06;;;12.61;100.00
20023;BME280;10172;42.054;24.546;2022-11-12T06:25:11;99607.16;;;12.53;100.00
20023;BME280;10172;42.054;24.546;2022-11-12T06:27:37;99599.22;;;10.99;100.00
20023;BME280;10172;42.054;24.546;2022-11-12T06:30:04;99609.44;;;11.78;100.00
20023;BME280;10172;42.054;24.546;2022-11-12T06:32:30;99607.75;;;12.10;100.00
20023;BME280;10172;42.054;24.546;2022-11-12T06:34:56;99627.22;;;12.28;100.00
20023;BME280;10172;42.054;24.546;2022-11-12T06:37:21;99630.13;;;11.90;100.00
20023;BME280;10172;42.054;24.546;2022-11-12T06:39:47;99629.94;;;12.11;100.00
20023;BME280;10172;42.054;24.546;2022-11-12T06:42:13;99644.75;;;11.12;100.00
20023;BME280;10172;42.054;24.546;2022-11-12T06:44:39;99625.00;;;10.61;100.00
20023;BME280;10172;42.054;24.546;2022-11-12T06:47:04;99640.00;;;9.65;100.00
20023;BME280;10172;42.054;24.546;2022-11-12T06:49:29;99658.78;;;9.38;100.00
20023;BME280;10172;42.054;24.546;2022-11-12T06:51:55;99656.00;;;9.83;100.00
20023;BME280;10172;42.054;24.546;2022-11-12T06:54:20;99655.00;;;9.86;100.00
20023;BME280;10172;42.054;24.546;2022-11-12T06:56:46;99657.13;;;9.78;100.00
20023;BME280;10172;42.054;24.546;2022-11-12T06:59:11;99659.38;;;9.67;100.00
20023;BME280;10172;42.054;24.546;2022-11-12T07:01:37;99660.56;;;9.59;100.00
20023;BME280;10172;42.054;24.546;2022-11-12T07:04:02;99653.88;;;9.08;100.00
20023;BME280;10172;42.054;24.546;2022-11-12T07:06:28;99664.25;;;8.92;100.00
20023;BME280;10172;42.054;24.546;2022-11-12T07:08:53;99669.97;;;9.03;100.00
20023;BME280;10172;42.054;24.546;2022-11-12T07:11:19;99669.13;;;9.46;100.00
20023;BME280;10172;42.054;24.546;2022-11-12T07:13:46;99665.47;;;9.48;100.00
20023;BME280;10172;42.054;24.546;2022-11-12T07:16:13;99667.34;;;9.67;100.00
20023;BME280;10172;42.054;24.546;2022-11-12T07:18:45;99668.38;;;9.62;100.00
20023;BME280;10172;42.054;24.546;2022-11-12T07:21:17;99672.00;;;9.61;100.00
20023;BME280;10172;42.054;24.546;2022-11-12T07:23:43;99674.47;;;9.01;100.00
20023;BME280;10172;42.054;24.546;2022-11-12T07:26:13;99672.22;;;8.46;100.00
20023;BME280;10172;42.054;24.546;2022-11-12T07:28:39;99666.34;;;7.88;100.00
20023;BME280;10172;42.054;24.546;2022-11-12T07:31:06;99657.34;;;7.92;100.00
20023;BME280;10172;42.054;24.546;2022-11-12T07:33:33;99672.63;;;7.86;100.00
20023;BME280;10172;42.054;24.546;2022-11-12T07:36:07;99671.25;;;7.99;100.00
20023;BME280;10172;42.054;24.546;2022-11-12T07:38:35;99677.75;;;8.15;100.00
20023;BME280;10172;42.054;24.546;2022-11-12T07:41:06;99676.69;;;8.90;100.00
20023;BME280;10172;42.054;24.546;2022-11-12T07:43:34;99679.31;;;9.13;100.00
20023;BME280;10172;42.054;24.546;2022-11-12T07:46:04;99681.63;;;8.77;100.00
20023;BME280;10172;42.054;24.546;2022-11-12T07:48:31;99682.84;;;9.14;100.00
20023;BME280;10172;42.054;24.546;2022-11-12T07:51:10;99701.13;;;8.98;100.00
20023;BME280;10172;42.054;24.546;2022-11-12T07:53:36;99689.16;;;8.88;100.00
20023;BME280;10172;42.054;24.546;2022-11-12T07:56:02;99690.31;;;8.58;100.00
20023;BME280;10172;42.054;24.546;2022-11-12T07:58:30;99695.22;;;8.20;100.00
20023;BME280;10172;42.054;24.546;2022-11-12T08:00:56;99693.59;;;8.41;100.00
20023;BME280;10172;42.054;24.546;2022-11-12T08:03:22;99696.63;;;8.30;100.00
20023;BME280;10172;42.054;24.546;2022-11-12T08:05:48;99700.97;;;8.08;100.00
20023;BME280;10172;42.054;24.546;2022-11-12T08:08:14;99694.13;;;8.51;100.00
20023;BME280;10172;42.054;24.546;2022-11-12T08:10:40;99699.00;;;8.38;100.00
20023;BME280;10172;42.054;24.546;2022-11-12T08:13:05;99700.44;;;8.22;100.00
20023;BME280;10172;42.054;24.546;2022-11-12T08:15:31;99705.22;;;9.07;100.00
20023;BME280;10172;42.054;24.546;2022-11-12T08:17:56;99702.94;;;9.19;100.00
20023;BME280;10172;42.054;24.546;2022-11-12T08:20:22;99706.47;;;9.20;100.00
20023;BME280;10172;42.054;24.546;2022-11-12T08:22:47;99709.06;;;9.65;100.00
20023;BME280;10172;42.054;24.546;2022-11-12T08:25:13;99706.66;;;9.15;100.00
20023;BME280;10172;42.054;24.546;2022-11-12T08:27:39;99707.66;;;8.89;100.00
20023;BME280;10172;42.054;24.546;2022-11-12T08:30:05;99722.72;;;8.43;100.00
20023;BME280;10172;42.054;24.546;2022-11-12T08:32:31;99713.28;;;8.59;100.00
20023;BME280;10172;42.054;24.546;2022-11-12T08:34:56;99721.34;;;8.32;100.00
20023;BME280;10172;42.054;24.546;2022-11-12T08:37:22;99713.56;;;8.26;100.00
20023;BME280;10172;42.054;24.546;2022-11-12T08:39:47;99705.75;;;8.47;100.00
20023;BME280;10172;42.054;24.546;2022-11-12T08:42:12;99714.47;;;8.25;100.00
20023;BME280;10172;42.054;24.546;2022-11-12T08:44:38;99706.38;;;8.05;100.00
20023;BME280;10172;42.054;24.546;2022-11-12T08:47:03;99716.63;;;8.14;100.00
20023;BME280;10172;42.054;24.546;2022-11-12T08:49:29;99716.97;;;8.05;100.00
20023;BME280;10172;42.054;24.546;2022-11-12T08:51:54;99728.34;;;7.82;100.00
20023;BME280;10172;42.054;24.546;2022-11-12T08:54:20;99712.25;;;7.89;100.00
20023;BME280;10172;42.054;24.546;2022-11-12T08:56:46;99707.31;;;7.78;100.00
20023;BME280;10172;42.054;24.546;2022-11-12T08:59:12;99718.06;;;8.00;100.00
20023;BME280;10172;42.054;24.546;2022-11-12T09:01:37;99718.00;;;8.01;100.00
20023;BME280;10172;42.054;24.546;2022-11-12T09:04:03;99720.97;;;8.41;100.00
20023;BME280;10172;42.054;24.546;2022-11-12T09:06:28;99721.63;;;8.71;100.00
20023;BME280;10172;42.054;24.546;2022-11-12T09:08:54;99714.94;;;8.84;100.00
20023;BME280;10172;42.054;24.546;2022-11-12T09:11:19;99721.00;;;9.96;100.00
20023;BME280;10172;42.054;24.546;2022-11-12T09:13:45;99718.59;;;9.48;100.00
20023;BME280;10172;42.054;24.546;2022-11-12T09:16:10;99718.47;;;9.51;100.00
20023;BME280;10172;42.054;24.546;2022-11-12T09:18:36;99708.88;;;9.47;100.00
20023;BME280;10172;42.054;24.546;2022-11-12T09:21:03;99716.38;;;9.59;100.00
20023;BME280;10172;42.054;24.546;2022-11-12T09:23:30;99718.25;;;10.78;100.00
20023;BME280;10172;42.054;24.546;2022-11-12T09:25:55;99716.84;;;10.11;100.00
20023;BME280;10172;42.054;24.546;2022-11-12T09:28:22;99713.88;;;9.33;100.00
20023;BME280;10172;42.054;24.546;2022-11-12T09:30:49;99705.78;;;10.00;100.00
20023;BME280;10172;42.054;24.546;2022-11-12T09:33:26;99707.59;;;10.97;100.00
20023;BME280;10172;42.054;24.546;2022-11-12T09:35:53;99704.44;;;11.62;100.00
20023;BME280;10172;42.054;24.546;2022-11-12T09:38:20;99711.09;;;11.71;100.00
20023;BME280;10172;42.054;24.546;2022-11-12T09:45:53;99706.50;;;11.74;100.00
20023;BME280;10172;42.054;24.546;2022-11-12T09:48:23;99700.38;;;11.89;100.00
20023;BME280;10172;42.054;24.546;2022-11-12T09:50:59;99708.25;;;12.27;100.00
20023;BME280;10172;42.054;24.546;2022-11-12T09:53:39;99711.03;;;12.41;100.00
20023;BME280;10172;42.054;24.546;2022-11-12T09:56:11;99710.69;;;12.64;100.00
20023;BME280;10172;42.054;24.546;2022-11-12T09:58:37;99703.47;;;12.82;100.00
20023;BME280;10172;42.054;24.546;2022-11-12T10:01:15;99709.19;;;12.91;100.00
20023;BME280;10172;42.054;24.546;2022-11-12T10:06:23;99708.91;;;13.29;100.00
20023;BME280;10172;42.054;24.546;2022-11-12T10:09:08;99701.56;;;13.16;100.00
20023;BME280;10172;42.054;24.546;2022-11-12T10:17:29;99703.25;;;12.86;100.00
20023;BME280;10172;42.054;24.546;2022-11-12T10:25:26;99689.72;;;12.24;100.00
20023;BME280;10172;42.054;24.546;2022-11-12T10:27:54;99691.00;;;11.99;100.00
20023;BME280;10172;42.054;24.546;2022-11-12T10:30:22;99691.81;;;12.17;100.00
20023;BME280;10172;42.054;24.546;2022-11-12T10:32:51;99692.28;;;12.25;100.00
20023;BME280;10172;42.054;24.546;2022-11-12T10:35:20;99689.81;;;12.55;100.00
20023;BME280;10172;42.054;24.546;2022-11-12T10:38:02;99692.41;;;13.05;100.00
20023;BME280;10172;42.054;24.546;2022-11-12T10:40:38;99691.31;;;13.25;100.00
20023;BME280;10172;42.054;24.546;2022-11-12T10:43:19;99693.41;;;13.35;100.00
20023;BME280;10172;42.054;24.546;2022-11-12T10:45:47;99690.53;;;13.23;100.00
20023;BME280;10172;42.054;24.546;2022-11-12T10:48:26;99695.94;;;13.05;100.00
20023;BME280;10172;42.054;24.546;2022-11-12T10:50:57;99698.03;;;13.47;100.00
20023;BME280;10172;42.054;24.546;2022-11-12T10:53:39;99684.94;;;13.43;100.00
20023;BME280;10172;42.054;24.546;2022-11-12T10:56:30;99685.03;;;13.10;100.00
20023;BME280;10172;42.054;24.546;2022-11-12T10:59:20;99687.25;;;12.69;100.00
20023;BME280;10172;42.054;24.546;2022-11-12T11:01:53;99681.44;;;12.94;100.00
20023;BME280;10172;42.054;24.546;2022-11-12T11:04:37;99693.09;;;12.60;100.00
20023;BME280;10172;42.054;24.546;2022-11-12T11:07:18;99678.69;;;12.95;100.00
20023;BME280;10172;42.054;24.546;2022-11-12T11:09:59;99688.41;;;13.13;100.00
20023;BME280;10172;42.054;24.546;2022-11-12T11:12:31;99682.00;;;13.32;100.00
20023;BME280;10172;42.054;24.546;2022-11-12T11:15:18;99676.28;;;13.06;100.00
20023;BME280;10172;42.054;24.546;2022-11-12T11:17:44;99682.16;;;13.29;100.00
20023;BME280;10172;42.054;24.546;2022-11-12T11:20:34;99676.22;;;13.24;100.00
20023;BME280;10172;42.054;24.546;2022-11-12T11:25:41;99686.69;;;12.95;100.00
20023;BME280;10172;42.054;24.546;2022-11-12T11:28:26;99678.59;;;12.97;100.00
20023;BME280;10172;42.054;24.546;2022-11-12T11:31:01;99679.66;;;12.94;100.00
20023;BME280;10172;42.054;24.546;2022-11-12T11:33:36;99676.88;;;12.96;100.00
20023;BME280;10172;42.054;24.546;2022-11-12T11:36:20;99688.66;;;12.76;100.00
20023;BME280;10172;42.054;24.546;2022-11-12T11:44:46;99672.69;;;13.07;100.00
20023;BME280;10172;42.054;24.546;2022-11-12T11:52:43;99669.53;;;12.35;100.00
20023;BME280;10172;42.054;24.546;2022-11-12T11:55:42;99665.41;;;12.78;100.00
20023;BME280;10172;42.054;24.546;2022-11-12T11:58:31;99663.81;;;13.07;100.00
20023;BME280;10172;42.054;24.546;2022-11-12T12:01:14;99665.44;;;13.09;100.00
20023;BME280;10172;42.054;24.546;2022-11-12T12:20:57;99654.41;;;13.00;100.00
20023;BME280;10172;42.054;24.546;2022-11-12T12:23:30;99657.47;;;12.92;100.00
20023;BME280;10172;42.054;24.546;2022-11-12T12:26:00;99647.69;;;13.08;100.00
20023;BME280;10172;42.054;24.546;2022-11-12T12:31:06;99660.94;;;13.41;100.00
20023;BME280;10172;42.054;24.546;2022-11-12T12:33:56;99653.28;;;13.19;100.00
20023;BME280;10172;42.054;24.546;2022-11-12T12:36:36;99663.13;;;13.35;100.00
20023;BME280;10172;42.054;24.546;2022-11-12T12:45:44;99664.78;;;11.73;100.00
20023;BME280;10172;42.054;24.546;2022-11-12T12:48:22;99656.50;;;12.29;100.00
20023;BME280;10172;42.054;24.546;2022-11-12T12:50:51;99671.91;;;12.57;100.00
20023;BME280;10172;42.054;24.546;2022-11-12T12:53:31;99666.22;;;12.63;100.00
20023;BME280;10172;42.054;24.546;2022-11-12T12:55:58;99668.34;;;12.89;100.00
20023;BME280;10172;42.054;24.546;2022-11-12T12:58:47;99673.13;;;13.15;100.00
20023;BME280;10172;42.054;24.546;2022-11-12T13:08:51;99667.94;;;13.28;100.00
20023;BME280;10172;42.054;24.546;2022-11-12T13:19:35;99664.47;;;11.96;100.00
20023;BME280;10172;42.054;24.546;2022-11-12T13:25:01;99664.28;;;9.34;100.00
20023;BME280;10172;42.054;24.546;2022-11-12T13:40:57;99663.88;;;9.01;100.00
20023;BME280;10172;42.054;24.546;2022-11-12T13:43:39;99652.34;;;8.79;100.00
20023;BME280;10172;42.054;24.546;2022-11-12T13:48:47;99653.38;;;8.98;100.00
20023;BME280;10172;42.054;24.546;2022-11-12T13:53:41;99646.69;;;10.90;100.00
20023;BME280;10172;42.054;24.546;2022-11-12T13:56:09;99643.88;;;11.47;100.00
20023;BME280;10172;42.054;24.546;2022-11-12T13:58:36;99647.03;;;11.89;100.00
20023;BME280;10172;42.054;24.546;2022-11-12T14:01:04;99661.66;;;11.82;100.00
20023;BME280;10172;42.054;24.546;2022-11-12T14:03:44;99654.03;;;12.09;100.00
20023;BME280;10172;42.054;24.546;2022-11-12T14:17:58;99651.69;;;9.39;100.00
20023;BME280;10172;42.054;24.546;2022-11-12T14:20:37;99659.56;;;9.20;100.00
20023;BME280;10172;42.054;24.546;2022-11-12T14:23:18;99657.47;;;9.90;100.00
20023;BME280;10172;42.054;24.546;2022-11-12T14:25:46;99659.13;;;9.09;100.00
20023;BME280;10172;42.054;24.546;2022-11-12T14:28:30;99638.81;;;9.08;100.00
20023;BME280;10172;42.054;24.546;2022-11-12T14:30:57;99667.19;;;9.49;100.00
20023;BME280;10172;42.054;24.546;2022-11-12T14:33:25;99657.56;;;9.25;100.00
20023;BME280;10172;42.054;24.546;2022-11-12T14:36:00;99649.91;;;9.39;100.00
20023;BME280;10172;42.054;24.546;2022-11-12T14:38:29;99656.44;;;9.52;100.00
20023;BME280;10172;42.054;24.546;2022-11-12T14:41:21;99654.34;;;9.39;100.00
20023;BME280;10172;42.054;24.546;2022-11-12T14:43:50;99655.09;;;8.99;100.00